sensor_id;sensor_type;location;lat;lon;timestamp;P1;durP1;ratioP1;P2;durP2;ratioP2
71172;SDS011;58875;51.996;4.504;2024-01-15T00:01:28;6.45;;;3.98;;
71172;SDS011;58875;51.996;4.504;2024-01-15T00:03:54;7.40;;;4.52;;
71172;SDS011;58875;51.996;4.504;2024-01-15T00:06:20;7.69;;;4.68;;
71172;SDS011;58875;51.996;4.504;2024-01-15T00:08:46;7.05;;;4.29;;
71172;SDS011;58875;51.996;4.504;2024-01-15T00:11:12;7.22;;;4.39;;
71172;SDS011;58875;51.996;4.504;2024-01-15T00:13:37;7.12;;;4.33;;
71172;SDS011;58875;51.996;4.504;2024-01-15T00:16:04;7.57;;;4.58;;
71172;SDS011;58875;51.996;4.504;2024-01-15T00:18:29;7.68;;;4.63;;
71172;SDS011;58875;51.996;4.504;2024-01-15T00:20:55;7.41;;;4.47;;
71172;SDS011;58875;51.996;4.504;2024-01-15T00:23:22;7.31;;;4.39;;
71172;SDS011;58875;51.996;4.504;2024-01-15T00:25:48;9.16;;;5.50;;
71172;SDS011;58875;51.996;4.504;2024-01-15T00:28:13;7.45;;;4.47;;
71172;SDS011;58875;51.996;4.504;2024-01-15T00:30:39;7.42;;;4.47;;
71172;SDS011;58875;51.996;4.504;2024-01-15T00:33:04;6.98;;;4.24;;
71172;SDS011;58875;51.996;4.504;2024-01-15T00:35:30;6.82;;;4.14;;
71172;SDS011;58875;51.996;4.504;2024-01-15T00:37:55;7.06;;;4.32;;
71172;SDS011;58875;51.996;4.504;2024-01-15T00:40:21;6.30;;;3.91;;
71172;SDS011;58875;51.996;4.504;2024-01-15T00:42:46;6.47;;;4.01;;
71172;SDS011;58875;51.996;4.504;2024-01-15T00:45:12;6.84;;;4.19;;
71172;SDS011;58875;51.996;4.504;2024-01-15T00:47:38;6.83;;;4.17;;
71172;SDS011;58875;51.996;4.504;2024-01-15T00:50:04;7.18;;;4.36;;
71172;SDS011;58875;51.996;4.504;2024-01-15T00:52:30;7.24;;;4.39;;
71172;SDS011;58875;51.996;4.504;2024-01-15T00:54:56;6.30;;;3.83;;
71172;SDS011;58875;51.996;4.504;2024-01-15T00:57:21;6.05;;;3.69;;
71172;SDS011;58875;51.996;4.504;2024-01-15T00:59:47;7.02;;;4.26;;
71172;SDS011;58875;51.996;4.504;2024-01-15T01:02:13;6.95;;;4.16;;
71172;SDS011;58875;51.996;4.504;2024-01-15T01:04:39;6.99;;;4.18;;
71172;SDS011;58875;51.996;4.504;2024-01-15T01:07:05;6.65;;;3.99;;
71172;SDS011;58875;51.996;4.504;2024-01-15T01:09:31;6.39;;;3.85;;
71172;SDS011;58875;51.996;4.504;2024-01-15T01:11:56;5.28;;;3.18;;
71172;SDS011;58875;51.996;4.504;2024-01-15T01:14:22;5.26;;;3.18;;
71172;SDS011;58875;51.996;4.504;2024-01-15T01:16:47;6.38;;;3.84;;
71172;SDS011;58875;51.996;4.504;2024-01-15T01:19:13;6.64;;;3.98;;
71172;SDS011;58875;51.996;4.504;2024-01-15T01:21:39;6.62;;;3.95;;
71172;SDS011;58875;51.996;4.504;2024-01-15T01:24:04;6.07;;;3.65;;
71172;SDS011;58875;51.996;4.504;2024-01-15T01:26:30;6.62;;;4.01;;
71172;SDS011;58875;51.996;4.504;2024-01-15T01:28:55;6.55;;;3.95;;
71172;SDS011;58875;51.996;4.504;2024-01-15T01:31:21;6.11;;;3.67;;
71172;SDS011;58875;51.996;4.504;2024-01-15T01:33:47;5.90;;;3.54;;
71172;SDS011;58875;51.996;4.504;2024-01-15T01:36:12;6.41;;;3.85;;
71172;SDS011;58875;51.996;4.504;2024-01-15T01:38:38;6.59;;;3.97;;
71172;SDS011;58875;51.996;4.504;2024-01-15T01:41:04;5.79;;;3.50;;
71172;SDS011;58875;51.996;4.504;2024-01-15T01:43:30;6.56;;;3.96;;
71172;SDS011;58875;51.996;4.504;2024-01-15T01:45:56;6.03;;;3.63;;
71172;SDS011;58875;51.996;4.504;2024-01-15T01:48:24;6.30;;;3.78;;
71172;SDS011;58875;51.996;4.504;2024-01-15T01:50:54;6.56;;;3.93;;
71172;SDS011;58875;51.996;4.504;2024-01-15T01:53:24;5.82;;;3.50;;
71172;SDS011;58875;51.996;4.504;2024-01-15T01:55:52;5.85;;;3.52;;
71172;SDS011;58875;51.996;4.504;2024-01-15T01:58:19;5.25;;;3.16;;
71172;SDS011;58875;51.996;4.504;2024-01-15T02:00:46;5.20;;;3.13;;
71172;SDS011;58875;51.996;4.504;2024-01-15T02:03:12;5.91;;;3.55;;
71172;SDS011;58875;51.996;4.504;2024-01-15T02:05:39;5.28;;;3.15;;
71172;SDS011;58875;51.996;4.504;2024-01-15T02:08:05;5.18;;;3.10;;
71172;SDS011;58875;51.996;4.504;2024-01-15T02:10:31;5.03;;;3.01;;
71172;SDS011;58875;51.996;4.504;2024-01-15T02:12:57;5.57;;;3.34;;
71172;SDS011;58875;51.996;4.504;2024-01-15T02:15:23;4.98;;;2.99;;
71172;SDS011;58875;51.996;4.504;2024-01-15T02:18:10;5.40;;;3.24;;
71172;SDS011;58875;51.996;4.504;2024-01-15T02:20:35;5.29;;;3.16;;
71172;SDS011;58875;51.996;4.504;2024-01-15T02:23:07;5.82;;;3.48;;
71172;SDS011;58875;51.996;4.504;2024-01-15T02:25:36;5.01;;;3.00;;
71172;SDS011;58875;51.996;4.504;2024-01-15T02:28:12;3.88;;;2.33;;
71172;SDS011;58875;51.996;4.504;2024-01-15T02:30:42;3.89;;;2.34;;
71172;SDS011;58875;51.996;4.504;2024-01-15T02:33:09;3.15;;;1.90;;
71172;SDS011;58875;51.996;4.504;2024-01-15T02:35:36;3.03;;;1.82;;
71172;SDS011;58875;51.996;4.504;2024-01-15T02:38:02;3.03;;;1.82;;
71172;SDS011;58875;51.996;4.504;2024-01-15T02:40:29;2.83;;;1.71;;
71172;SDS011;58875;51.996;4.504;2024-01-15T02:42:54;3.12;;;1.89;;
71172;SDS011;58875;51.996;4.504;2024-01-15T02:45:20;3.33;;;2.02;;
71172;SDS011;58875;51.996;4.504;2024-01-15T02:47:46;3.27;;;1.98;;
71172;SDS011;58875;51.996;4.504;2024-01-15T02:50:12;2.83;;;1.72;;
71172;SDS011;58875;51.996;4.504;2024-01-15T02:52:38;2.86;;;1.73;;
71172;SDS011;58875;51.996;4.504;2024-01-15T02:55:04;2.95;;;1.78;;
71172;SDS011;58875;51.996;4.504;2024-01-15T02:57:30;2.74;;;1.65;;
71172;SDS011;58875;51.996;4.504;2024-01-15T02:59:55;2.72;;;1.64;;
71172;SDS011;58875;51.996;4.504;2024-01-15T03:02:21;2.70;;;1.62;;
71172;SDS011;58875;51.996;4.504;2024-01-15T03:04:47;2.85;;;1.73;;
71172;SDS011;58875;51.996;4.504;2024-01-15T03:07:12;3.26;;;1.98;;
71172;SDS011;58875;51.996;4.504;2024-01-15T03:09:38;2.70;;;1.64;;
71172;SDS011;58875;51.996;4.504;2024-01-15T03:12:04;4.11;;;2.48;;
71172;SDS011;58875;51.996;4.504;2024-01-15T03:14:29;3.97;;;2.38;;
71172;SDS011;58875;51.996;4.504;2024-01-15T03:16:57;4.24;;;2.54;;
71172;SDS011;58875;51.996;4.504;2024-01-15T03:19:23;4.20;;;2.52;;
71172;SDS011;58875;51.996;4.504;2024-01-15T03:21:48;3.41;;;2.05;;
71172;SDS011;58875;51.996;4.504;2024-01-15T03:24:14;2.72;;;1.63;;
71172;SDS011;58875;51.996;4.504;2024-01-15T03:26:39;2.88;;;1.73;;
71172;SDS011;58875;51.996;4.504;2024-01-15T03:29:05;3.16;;;1.89;;
71172;SDS011;58875;51.996;4.504;2024-01-15T03:31:30;3.54;;;2.13;;
71172;SDS011;58875;51.996;4.504;2024-01-15T03:33:56;4.06;;;2.46;;
71172;SDS011;58875;51.996;4.504;2024-01-15T03:36:21;3.99;;;2.42;;
71172;SDS011;58875;51.996;4.504;2024-01-15T03:38:47;4.53;;;2.75;;
71172;SDS011;58875;51.996;4.504;2024-01-15T03:41:13;4.34;;;2.63;;
71172;SDS011;58875;51.996;4.504;2024-01-15T03:43:38;4.95;;;2.96;;
71172;SDS011;58875;51.996;4.504;2024-01-15T03:46:05;5.23;;;3.15;;
71172;SDS011;58875;51.996;4.504;2024-01-15T03:48:31;5.34;;;3.22;;
71172;SDS011;58875;51.996;4.504;2024-01-15T03:50:56;4.98;;;3.01;;
71172;SDS011;58875;51.996;4.504;2024-01-15T03:53:22;4.94;;;2.99;;
71172;SDS011;58875;51.996;4.504;2024-01-15T03:55:47;5.38;;;3.23;;
71172;SDS011;58875;51.996;4.504;2024-01-15T03:58:13;4.92;;;2.96;;
71172;SDS011;58875;51.996;4.504;2024-01-15T04:00:40;4.28;;;2.58;;
71172;SDS011;58875;51.996;4.504;2024-01-15T04:03:06;4.19;;;2.54;;
71172;SDS011;58875;51.996;4.504;2024-01-15T04:05:32;5.30;;;3.20;;
71172;SDS011;58875;51.996;4.504;2024-01-15T04:07:57;4.06;;;2.46;;
71172;SDS011;58875;51.996;4.504;2024-01-15T04:10:23;4.69;;;2.85;;
71172;SDS011;58875;51.996;4.504;2024-01-15T04:12:48;4.43;;;2.69;;
71172;SDS011;58875;51.996;4.504;2024-01-15T04:15:14;4.81;;;2.92;;
71172;SDS011;58875;51.996;4.504;2024-01-15T04:17:40;4.52;;;2.72;;
71172;SDS011;58875;51.996;4.504;2024-01-15T04:20:06;4.80;;;2.90;;
71172;SDS011;58875;51.996;4.504;2024-01-15T04:22:33;3.96;;;2.40;;
71172;SDS011;58875;51.996;4.504;2024-01-15T04:24:59;2.37;;;1.44;;
71172;SDS011;58875;51.996;4.504;2024-01-15T04:27:24;2.38;;;1.46;;
71172;SDS011;58875;51.996;4.504;2024-01-15T04:29:50;2.43;;;1.49;;
71172;SDS011;58875;51.996;4.504;2024-01-15T04:32:15;2.28;;;1.40;;
71172;SDS011;58875;51.996;4.504;2024-01-15T04:34:41;1.86;;;1.14;;
71172;SDS011;58875;51.996;4.504;2024-01-15T04:37:06;2.57;;;1.58;;
71172;SDS011;58875;51.996;4.504;2024-01-15T04:39:32;3.00;;;1.84;;
71172;SDS011;58875;51.996;4.504;2024-01-15T04:41:57;2.74;;;1.69;;
71172;SDS011;58875;51.996;4.504;2024-01-15T04:44:23;2.80;;;1.72;;
71172;SDS011;58875;51.996;4.504;2024-01-15T04:46:48;2.05;;;1.26;;
71172;SDS011;58875;51.996;4.504;2024-01-15T04:49:14;1.78;;;1.09;;
71172;SDS011;58875;51.996;4.504;2024-01-15T04:51:39;2.19;;;1.34;;
71172;SDS011;58875;51.996;4.504;2024-01-15T04:54:05;1.84;;;1.13;;
71172;SDS011;58875;51.996;4.504;2024-01-15T04:56:31;1.63;;;1.00;;
71172;SDS011;58875;51.996;4.504;2024-01-15T04:58:56;2.03;;;1.25;;
71172;SDS011;58875;51.996;4.504;2024-01-15T05:01:22;2.34;;;1.44;;
71172;SDS011;58875;51.996;4.504;2024-01-15T05:03:47;2.00;;;1.23;;
71172;SDS011;58875;51.996;4.504;2024-01-15T05:06:14;2.09;;;1.28;;
71172;SDS011;58875;51.996;4.504;2024-01-15T05:08:40;2.17;;;1.33;;
71172;SDS011;58875;51.996;4.504;2024-01-15T05:11:05;1.78;;;1.10;;
71172;SDS011;58875;51.996;4.504;2024-01-15T05:13:30;1.70;;;1.05;;
71172;SDS011;58875;51.996;4.504;2024-01-15T05:15:56;2.27;;;1.40;;
71172;SDS011;58875;51.996;4.504;2024-01-15T05:18:21;2.33;;;1.44;;
71172;SDS011;58875;51.996;4.504;2024-01-15T05:20:47;2.13;;;1.31;;
71172;SDS011;58875;51.996;4.504;2024-01-15T05:23:12;2.10;;;1.31;;
71172;SDS011;58875;51.996;4.504;2024-01-15T05:25:38;2.31;;;1.44;;
71172;SDS011;58875;51.996;4.504;2024-01-15T05:28:04;2.25;;;1.42;;
71172;SDS011;58875;51.996;4.504;2024-01-15T05:30:31;2.32;;;1.48;;
71172;SDS011;58875;51.996;4.504;2024-01-15T05:32:56;2.21;;;1.42;;
71172;SDS011;58875;51.996;4.504;2024-01-15T05:35:22;2.31;;;1.47;;
71172;SDS011;58875;51.996;4.504;2024-01-15T05:37:48;2.65;;;1.68;;
71172;SDS011;58875;51.996;4.504;2024-01-15T05:40:14;3.37;;;2.16;;
71172;SDS011;58875;51.996;4.504;2024-01-15T05:42:41;3.39;;;2.18;;
71172;SDS011;58875;51.996;4.504;2024-01-15T05:45:07;3.56;;;2.30;;
71172;SDS011;58875;51.996;4.504;2024-01-15T05:47:32;3.66;;;2.37;;
71172;SDS011;58875;51.996;4.504;2024-01-15T05:49:58;3.32;;;2.15;;
71172;SDS011;58875;51.996;4.504;2024-01-15T05:52:25;3.07;;;1.99;;
71172;SDS011;58875;51.996;4.504;2024-01-15T05:54:51;3.36;;;2.18;;
71172;SDS011;58875;51.996;4.504;2024-01-15T05:57:16;3.40;;;2.19;;
71172;SDS011;58875;51.996;4.504;2024-01-15T05:59:42;4.09;;;2.62;;
71172;SDS011;58875;51.996;4.504;2024-01-15T06:02:09;3.61;;;2.29;;
71172;SDS011;58875;51.996;4.504;2024-01-15T06:04:34;3.49;;;2.20;;
71172;SDS011;58875;51.996;4.504;2024-01-15T06:07:00;3.82;;;2.40;;
71172;SDS011;58875;51.996;4.504;2024-01-15T06:09:26;4.26;;;2.65;;
71172;SDS011;58875;51.996;4.504;2024-01-15T06:11:51;4.10;;;2.55;;
71172;SDS011;58875;51.996;4.504;2024-01-15T06:14:17;3.87;;;2.41;;
71172;SDS011;58875;51.996;4.504;2024-01-15T06:16:42;3.52;;;2.20;;
71172;SDS011;58875;51.996;4.504;2024-01-15T06:19:08;2.38;;;1.49;;
71172;SDS011;58875;51.996;4.504;2024-01-15T06:21:33;2.96;;;1.86;;
71172;SDS011;58875;51.996;4.504;2024-01-15T06:23:59;2.60;;;1.62;;
71172;SDS011;58875;51.996;4.504;2024-01-15T06:26:24;2.73;;;1.70;;
71172;SDS011;58875;51.996;4.504;2024-01-15T06:28:50;2.37;;;1.48;;
71172;SDS011;58875;51.996;4.504;2024-01-15T06:31:15;2.23;;;1.39;;
71172;SDS011;58875;51.996;4.504;2024-01-15T06:33:41;2.39;;;1.50;;
71172;SDS011;58875;51.996;4.504;2024-01-15T06:36:07;1.93;;;1.21;;
71172;SDS011;58875;51.996;4.504;2024-01-15T06:38:33;2.05;;;1.29;;
71172;SDS011;58875;51.996;4.504;2024-01-15T06:40:59;2.11;;;1.33;;
71172;SDS011;58875;51.996;4.504;2024-01-15T06:43:25;2.53;;;1.60;;
71172;SDS011;58875;51.996;4.504;2024-01-15T06:45:50;2.56;;;1.63;;
71172;SDS011;58875;51.996;4.504;2024-01-15T06:48:16;2.50;;;1.59;;
71172;SDS011;58875;51.996;4.504;2024-01-15T06:50:44;2.43;;;1.55;;
71172;SDS011;58875;51.996;4.504;2024-01-15T06:53:10;2.41;;;1.54;;
71172;SDS011;58875;51.996;4.504;2024-01-15T06:55:37;2.92;;;1.86;;
71172;SDS011;58875;51.996;4.504;2024-01-15T06:58:03;3.66;;;2.32;;
71172;SDS011;58875;51.996;4.504;2024-01-15T07:00:29;3.90;;;2.49;;
71172;SDS011;58875;51.996;4.504;2024-01-15T07:02:54;3.63;;;2.37;;
71172;SDS011;58875;51.996;4.504;2024-01-15T07:05:20;3.39;;;2.24;;
71172;SDS011;58875;51.996;4.504;2024-01-15T07:07:46;3.20;;;2.13;;
71172;SDS011;58875;51.996;4.504;2024-01-15T07:10:12;3.23;;;2.18;;
71172;SDS011;58875;51.996;4.504;2024-01-15T07:12:38;3.03;;;2.08;;
71172;SDS011;58875;51.996;4.504;2024-01-15T07:15:04;3.01;;;2.07;;
71172;SDS011;58875;51.996;4.504;2024-01-15T07:17:32;3.47;;;2.34;;
71172;SDS011;58875;51.996;4.504;2024-01-15T07:19:58;3.87;;;2.54;;
71172;SDS011;58875;51.996;4.504;2024-01-15T07:22:23;4.13;;;2.70;;
71172;SDS011;58875;51.996;4.504;2024-01-15T07:24:49;4.48;;;2.93;;
71172;SDS011;58875;51.996;4.504;2024-01-15T07:27:14;4.58;;;2.96;;
71172;SDS011;58875;51.996;4.504;2024-01-15T07:29:40;4.85;;;3.15;;
71172;SDS011;58875;51.996;4.504;2024-01-15T07:32:05;4.58;;;2.97;;
71172;SDS011;58875;51.996;4.504;2024-01-15T07:34:32;4.34;;;2.84;;
71172;SDS011;58875;51.996;4.504;2024-01-15T07:36:58;4.15;;;2.72;;
71172;SDS011;58875;51.996;4.504;2024-01-15T07:39:23;4.76;;;3.12;;
71172;SDS011;58875;51.996;4.504;2024-01-15T07:41:50;4.66;;;3.06;;
71172;SDS011;58875;51.996;4.504;2024-01-15T07:44:17;4.94;;;3.26;;
71172;SDS011;58875;51.996;4.504;2024-01-15T07:46:46;6.00;;;3.89;;
71172;SDS011;58875;51.996;4.504;2024-01-15T07:49:12;6.19;;;3.99;;
71172;SDS011;58875;51.996;4.504;2024-01-15T07:51:39;5.00;;;3.19;;
71172;SDS011;58875;51.996;4.504;2024-01-15T07:54:05;5.85;;;3.68;;
71172;SDS011;58875;51.996;4.504;2024-01-15T07:56:31;5.65;;;3.52;;
71172;SDS011;58875;51.996;4.504;2024-01-15T07:58:57;4.84;;;3.01;;
71172;SDS011;58875;51.996;4.504;2024-01-15T08:01:23;4.65;;;2.89;;
71172;SDS011;58875;51.996;4.504;2024-01-15T08:03:48;4.80;;;2.98;;
71172;SDS011;58875;51.996;4.504;2024-01-15T08:06:14;5.38;;;3.29;;
71172;SDS011;58875;51.996;4.504;2024-01-15T08:08:40;5.77;;;3.51;;
71172;SDS011;58875;51.996;4.504;2024-01-15T08:11:05;6.01;;;3.66;;
71172;SDS011;58875;51.996;4.504;2024-01-15T08:13:31;7.34;;;4.44;;
71172;SDS011;58875;51.996;4.504;2024-01-15T08:15:57;7.23;;;4.36;;
71172;SDS011;58875;51.996;4.504;2024-01-15T08:18:22;6.80;;;4.09;;
71172;SDS011;58875;51.996;4.504;2024-01-15T08:20:48;6.86;;;4.13;;
71172;SDS011;58875;51.996;4.504;2024-01-15T08:23:14;6.74;;;4.06;;
71172;SDS011;58875;51.996;4.504;2024-01-15T08:25:40;5.23;;;3.19;;
71172;SDS011;58875;51.996;4.504;2024-01-15T08:28:05;4.32;;;2.66;;
71172;SDS011;58875;51.996;4.504;2024-01-15T08:30:31;4.22;;;2.62;;
71172;SDS011;58875;51.996;4.504;2024-01-15T08:32:56;4.19;;;2.60;;
71172;SDS011;58875;51.996;4.504;2024-01-15T08:35:22;4.75;;;2.94;;
71172;SDS011;58875;51.996;4.504;2024-01-15T08:37:54;4.74;;;2.92;;
71172;SDS011;58875;51.996;4.504;2024-01-15T08:40:19;4.23;;;2.60;;
71172;SDS011;58875;51.996;4.504;2024-01-15T08:42:45;4.28;;;2.62;;
71172;SDS011;58875;51.996;4.504;2024-01-15T08:45:11;3.97;;;2.42;;
71172;SDS011;58875;51.996;4.504;2024-01-15T08:47:37;4.35;;;2.66;;
71172;SDS011;58875;51.996;4.504;2024-01-15T08:50:03;4.52;;;2.76;;
71172;SDS011;58875;51.996;4.504;2024-01-15T08:52:30;3.67;;;2.24;;
71172;SDS011;58875;51.996;4.504;2024-01-15T08:54:56;2.95;;;1.81;;
71172;SDS011;58875;51.996;4.504;2024-01-15T08:57:22;2.43;;;1.50;;
71172;SDS011;58875;51.996;4.504;2024-01-15T08:59:48;2.32;;;1.42;;
71172;SDS011;58875;51.996;4.504;2024-01-15T09:02:13;1.58;;;0.97;;
71172;SDS011;58875;51.996;4.504;2024-01-15T09:04:39;2.53;;;1.56;;
71172;SDS011;58875;51.996;4.504;2024-01-15T09:07:05;3.14;;;1.94;;
71172;SDS011;58875;51.996;4.504;2024-01-15T09:09:31;3.17;;;1.96;;
71172;SDS011;58875;51.996;4.504;2024-01-15T09:11:56;3.34;;;2.07;;
71172;SDS011;58875;51.996;4.504;2024-01-15T09:14:22;4.11;;;2.59;;
71172;SDS011;58875;51.996;4.504;2024-01-15T09:16:49;3.61;;;2.30;;
71172;SDS011;58875;51.996;4.504;2024-01-15T09:19:16;3.42;;;2.19;;
71172;SDS011;58875;51.996;4.504;2024-01-15T09:21:42;3.57;;;2.29;;
71172;SDS011;58875;51.996;4.504;2024-01-15T09:24:07;4.11;;;2.63;;
71172;SDS011;58875;51.996;4.504;2024-01-15T09:26:33;4.15;;;2.64;;
71172;SDS011;58875;51.996;4.504;2024-01-15T09:28:58;4.70;;;2.95;;
71172;SDS011;58875;51.996;4.504;2024-01-15T09:31:24;5.20;;;3.26;;
71172;SDS011;58875;51.996;4.504;2024-01-15T09:33:49;5.36;;;3.34;;
71172;SDS011;58875;51.996;4.504;2024-01-15T09:36:17;5.67;;;3.50;;
71172;SDS011;58875;51.996;4.504;2024-01-15T09:38:43;5.27;;;3.25;;
71172;SDS011;58875;51.996;4.504;2024-01-15T09:41:09;5.12;;;3.13;;
71172;SDS011;58875;51.996;4.504;2024-01-15T09:43:36;5.46;;;3.34;;
71172;SDS011;58875;51.996;4.504;2024-01-15T09:46:03;5.09;;;3.13;;
71172;SDS011;58875;51.996;4.504;2024-01-15T09:48:29;4.98;;;3.07;;
71172;SDS011;58875;51.996;4.504;2024-01-15T09:50:55;4.07;;;2.53;;
71172;SDS011;58875;51.996;4.504;2024-01-15T09:53:23;3.63;;;2.29;;
71172;SDS011;58875;51.996;4.504;2024-01-15T09:55:50;3.73;;;2.35;;
71172;SDS011;58875;51.996;4.504;2024-01-15T09:58:18;3.92;;;2.47;;
71172;SDS011;58875;51.996;4.504;2024-01-15T10:00:44;3.16;;;1.98;;
71172;SDS011;58875;51.996;4.504;2024-01-15T10:03:10;3.20;;;2.01;;
71172;SDS011;58875;51.996;4.504;2024-01-15T10:05:36;3.41;;;2.14;;
71172;SDS011;58875;51.996;4.504;2024-01-15T10:08:03;3.55;;;2.22;;
71172;SDS011;58875;51.996;4.504;2024-01-15T10:10:29;3.24;;;2.02;;
71172;SDS011;58875;51.996;4.504;2024-01-15T10:12:56;3.47;;;2.16;;
71172;SDS011;58875;51.996;4.504;2024-01-15T10:15:27;2.99;;;1.86;;
71172;SDS011;58875;51.996;4.504;2024-01-15T10:17:54;3.41;;;2.13;;
71172;SDS011;58875;51.996;4.504;2024-01-15T10:20:20;2.75;;;1.72;;
71172;SDS011;58875;51.996;4.504;2024-01-15T10:22:47;3.51;;;2.20;;
71172;SDS011;58875;51.996;4.504;2024-01-15T10:25:13;3.51;;;2.18;;
71172;SDS011;58875;51.996;4.504;2024-01-15T10:27:42;4.05;;;2.48;;
71172;SDS011;58875;51.996;4.504;2024-01-15T10:30:08;4.45;;;2.72;;
71172;SDS011;58875;51.996;4.504;2024-01-15T10:32:35;3.45;;;2.11;;
71172;SDS011;58875;51.996;4.504;2024-01-15T10:35:00;3.86;;;2.39;;
71172;SDS011;58875;51.996;4.504;2024-01-15T10:37:26;3.91;;;2.42;;
71172;SDS011;58875;51.996;4.504;2024-01-15T10:39:52;3.85;;;2.40;;
71172;SDS011;58875;51.996;4.504;2024-01-15T10:42:17;4.11;;;2.56;;
71172;SDS011;58875;51.996;4.504;2024-01-15T10:44:44;4.08;;;2.55;;
71172;SDS011;58875;51.996;4.504;2024-01-15T10:47:12;3.89;;;2.44;;
71172;SDS011;58875;51.996;4.504;2024-01-15T10:49:43;3.51;;;2.21;;
71172;SDS011;58875;51.996;4.504;2024-01-15T10:52:10;3.97;;;2.51;;
71172;SDS011;58875;51.996;4.504;2024-01-15T10:54:35;4.34;;;2.77;;
71172;SDS011;58875;51.996;4.504;2024-01-15T10:57:02;3.74;;;2.38;;
71172;SDS011;58875;51.996;4.504;2024-01-15T10:59:28;3.74;;;2.39;;
71172;SDS011;58875;51.996;4.504;2024-01-15T11:01:54;3.86;;;2.46;;
71172;SDS011;58875;51.996;4.504;2024-01-15T11:04:21;3.83;;;2.43;;
71172;SDS011;58875;51.996;4.504;2024-01-15T11:06:49;3.60;;;2.28;;
71172;SDS011;58875;51.996;4.504;2024-01-15T11:09:18;3.54;;;2.25;;
71172;SDS011;58875;51.996;4.504;2024-01-15T11:11:44;3.65;;;2.31;;
71172;SDS011;58875;51.996;4.504;2024-01-15T11:14:33;4.55;;;2.87;;
71172;SDS011;58875;51.996;4.504;2024-01-15T11:17:08;3.46;;;2.17;;
71172;SDS011;58875;51.996;4.504;2024-01-15T11:19:35;2.87;;;1.82;;
71172;SDS011;58875;51.996;4.504;2024-01-15T11:25:12;3.09;;;1.95;;
71172;SDS011;58875;51.996;4.504;2024-01-15T11:27:43;2.91;;;1.82;;
71172;SDS011;58875;51.996;4.504;2024-01-15T11:30:16;3.76;;;2.36;;
71172;SDS011;58875;51.996;4.504;2024-01-15T11:32:43;3.77;;;2.37;;
71172;SDS011;58875;51.996;4.504;2024-01-15T11:35:09;3.18;;;1.99;;
71172;SDS011;58875;51.996;4.504;2024-01-15T11:40:35;3.81;;;2.37;;
71172;SDS011;58875;51.996;4.504;2024-01-15T11:43:03;3.49;;;2.18;;
71172;SDS011;58875;51.996;4.504;2024-01-15T11:45:30;4.96;;;3.09;;
71172;SDS011;58875;51.996;4.504;2024-01-15T11:48:09;5.21;;;3.24;;
71172;SDS011;58875;51.996;4.504;2024-01-15T11:50:40;4.79;;;2.96;;
71172;SDS011;58875;51.996;4.504;2024-01-15T11:53:17;4.69;;;2.91;;
71172;SDS011;58875;51.996;4.504;2024-01-15T11:55:58;4.15;;;2.57;;
71172;SDS011;58875;51.996;4.504;2024-01-15T11:58:25;5.37;;;3.31;;
71172;SDS011;58875;51.996;4.504;2024-01-15T12:00:51;6.62;;;4.08;;
71172;SDS011;58875;51.996;4.504;2024-01-15T12:03:17;6.17;;;3.82;;
71172;SDS011;58875;51.996;4.504;2024-01-15T12:05:46;6.32;;;3.91;;
71172;SDS011;58875;51.996;4.504;2024-01-15T12:08:12;7.01;;;4.33;;
71172;SDS011;58875;51.996;4.504;2024-01-15T12:10:38;6.39;;;3.96;;
71172;SDS011;58875;51.996;4.504;2024-01-15T12:13:09;6.48;;;3.99;;
71172;SDS011;58875;51.996;4.504;2024-01-15T12:15:43;6.61;;;4.07;;
71172;SDS011;58875;51.996;4.504;2024-01-15T12:18:10;6.77;;;4.15;;
71172;SDS011;58875;51.996;4.504;2024-01-15T12:20:39;6.40;;;3.96;;
71172;SDS011;58875;51.996;4.504;2024-01-15T12:23:06;6.62;;;4.12;;
71172;SDS011;58875;51.996;4.504;2024-01-15T12:25:32;7.25;;;4.48;;
71172;SDS011;58875;51.996;4.504;2024-01-15T12:27:59;7.82;;;4.79;;
71172;SDS011;58875;51.996;4.504;2024-01-15T12:30:29;8.28;;;5.07;;
71172;SDS011;58875;51.996;4.504;2024-01-15T12:32:58;8.52;;;5.24;;
71172;SDS011;58875;51.996;4.504;2024-01-15T12:35:30;7.79;;;4.79;;
71172;SDS011;58875;51.996;4.504;2024-01-15T12:37:56;6.68;;;4.13;;
71172;SDS011;58875;51.996;4.504;2024-01-15T12:40:22;5.06;;;3.18;;
71172;SDS011;58875;51.996;4.504;2024-01-15T12:42:49;5.44;;;3.42;;
71172;SDS011;58875;51.996;4.504;2024-01-15T12:45:14;5.23;;;3.25;;
71172;SDS011;58875;51.996;4.504;2024-01-15T12:47:41;5.36;;;3.35;;
71172;SDS011;58875;51.996;4.504;2024-01-15T12:50:08;5.38;;;3.35;;
71172;SDS011;58875;51.996;4.504;2024-01-15T12:52:34;6.02;;;3.70;;
71172;SDS011;58875;51.996;4.504;2024-01-15T12:55:00;8.01;;;4.89;;
71172;SDS011;58875;51.996;4.504;2024-01-15T12:57:25;7.61;;;4.68;;
71172;SDS011;58875;51.996;4.504;2024-01-15T12:59:54;7.68;;;4.73;;
71172;SDS011;58875;51.996;4.504;2024-01-15T13:02:20;7.17;;;4.43;;
71172;SDS011;58875;51.996;4.504;2024-01-15T13:04:45;6.82;;;4.25;;
71172;SDS011;58875;51.996;4.504;2024-01-15T13:07:11;7.66;;;4.77;;
71172;SDS011;58875;51.996;4.504;2024-01-15T13:09:36;8.53;;;5.24;;
71172;SDS011;58875;51.996;4.504;2024-01-15T13:12:02;9.30;;;5.67;;
71172;SDS011;58875;51.996;4.504;2024-01-15T13:14:28;8.93;;;5.49;;
71172;SDS011;58875;51.996;4.504;2024-01-15T13:16:54;7.68;;;4.74;;
71172;SDS011;58875;51.996;4.504;2024-01-15T13:19:21;6.73;;;4.16;;
71172;SDS011;58875;51.996;4.504;2024-01-15T13:21:48;5.63;;;3.49;;
71172;SDS011;58875;51.996;4.504;2024-01-15T13:24:15;6.36;;;3.96;;
71172;SDS011;58875;51.996;4.504;2024-01-15T13:26:40;6.13;;;3.81;;
71172;SDS011;58875;51.996;4.504;2024-01-15T13:29:06;5.38;;;3.35;;
71172;SDS011;58875;51.996;4.504;2024-01-15T13:31:32;4.37;;;2.73;;
71172;SDS011;58875;51.996;4.504;2024-01-15T13:33:58;3.86;;;2.44;;
71172;SDS011;58875;51.996;4.504;2024-01-15T13:36:24;3.77;;;2.37;;
71172;SDS011;58875;51.996;4.504;2024-01-15T13:38:51;3.98;;;2.49;;
71172;SDS011;58875;51.996;4.504;2024-01-15T13:41:20;3.65;;;2.29;;
71172;SDS011;58875;51.996;4.504;2024-01-15T13:43:55;3.88;;;2.44;;
71172;SDS011;58875;51.996;4.504;2024-01-15T13:46:22;4.38;;;2.78;;
71172;SDS011;58875;51.996;4.504;2024-01-15T13:48:49;4.33;;;2.73;;
71172;SDS011;58875;51.996;4.504;2024-01-15T13:51:15;5.54;;;3.47;;
71172;SDS011;58875;51.996;4.504;2024-01-15T13:53:41;6.02;;;3.78;;
71172;SDS011;58875;51.996;4.504;2024-01-15T13:56:07;5.97;;;3.72;;
71172;SDS011;58875;51.996;4.504;2024-01-15T13:58:33;6.15;;;3.82;;
71172;SDS011;58875;51.996;4.504;2024-01-15T14:00:59;6.87;;;4.26;;
71172;SDS011;58875;51.996;4.504;2024-01-15T14:03:25;6.54;;;4.11;;
71172;SDS011;58875;51.996;4.504;2024-01-15T14:05:54;7.22;;;4.56;;
71172;SDS011;58875;51.996;4.504;2024-01-15T14:08:19;7.04;;;4.44;;
71172;SDS011;58875;51.996;4.504;2024-01-15T14:10:45;6.53;;;4.13;;
71172;SDS011;58875;51.996;4.504;2024-01-15T14:13:10;6.29;;;3.98;;
71172;SDS011;58875;51.996;4.504;2024-01-15T14:15:36;7.00;;;4.43;;
71172;SDS011;58875;51.996;4.504;2024-01-15T14:18:02;6.57;;;4.14;;
71172;SDS011;58875;51.996;4.504;2024-01-15T14:20:28;7.00;;;4.40;;
71172;SDS011;58875;51.996;4.504;2024-01-15T14:22:53;7.67;;;4.81;;
71172;SDS011;58875;51.996;4.504;2024-01-15T14:25:22;7.98;;;5.02;;
71172;SDS011;58875;51.996;4.504;2024-01-15T14:27:49;7.07;;;4.41;;
71172;SDS011;58875;51.996;4.504;2024-01-15T14:30:15;7.05;;;4.37;;
71172;SDS011;58875;51.996;4.504;2024-01-15T14:32:41;7.10;;;4.42;;
71172;SDS011;58875;51.996;4.504;2024-01-15T14:35:08;6.19;;;3.87;;
71172;SDS011;58875;51.996;4.504;2024-01-15T14:37:39;7.02;;;4.40;;
71172;SDS011;58875;51.996;4.504;2024-01-15T14:40:08;6.44;;;4.10;;
71172;SDS011;58875;51.996;4.504;2024-01-15T14:42:35;5.23;;;3.37;;
71172;SDS011;58875;51.996;4.504;2024-01-15T14:45:02;5.06;;;3.29;;
71172;SDS011;58875;51.996;4.504;2024-01-15T14:47:28;5.44;;;3.52;;
71172;SDS011;58875;51.996;4.504;2024-01-15T14:49:54;4.97;;;3.20;;